Time;durP1;ratioP1;P1;durP2;ratioP2;P2;SDS_P1;SDS_P2;PMS_P1;PMS_P2;Temp;Humidity;BMP_temperature;BMP_pressure;BME280_temperature;BME280_humidity;BME280_pressure;Samples;Min_cycle;Max_cycle;Signal;HPM_P1;HPM_P2
2022/08/24 00:00:38;;;;;;;2.67;1.45;;;16.90;99.90;;;;;;5091806;28;20047;-73
2022/08/24 00:03:03;;;;;;;4.00;2.88;;;16.90;99.90;;;;;;5092003;28;20144;-73
2022/08/24 00:05:29;;;;;;;1.95;1.13;;;16.90;99.90;;;;;;5081529;28;20048;-73
2022/08/24 00:07:54;;;;;;;3.65;1.85;;;16.90;99.90;;;;;;5071936;28;20044;-73
2022/08/24 00:10:21;;;;;;;2.08;0.90;;;17.50;99.90;;;;;;5071167;28;20039;-73
2022/08/24 00:12:46;;;;;;;0.50;0.50;;;16.80;99.90;;;;;;5071723;28;20064;-74
2022/08/24 00:15:15;;;;;;;2.78;1.77;;;16.80;99.90;;;;;;5079134;28;20036;-73
2022/08/24 00:17:40;;;;;;;1.52;1.35;;;16.80;99.90;;;;;;5091722;28;20142;-74
2022/08/24 00:20:08;;;;;;;5.00;2.17;;;16.80;99.90;;;;;;5091574;28;20509;-74
2022/08/24 00:22:34;;;;;;;2.80;1.65;;;16.80;99.90;;;;;;5094230;28;20101;-73
2022/08/24 00:25:00;;;;;;;2.15;1.67;;;16.70;99.90;;;;;;5088114;28;20044;-74
2022/08/24 00:27:26;;;;;;;3.33;2.30;;;16.70;99.90;;;;;;5072928;28;20040;-73
2022/08/24 00:29:51;;;;;;;4.38;2.95;;;16.70;99.90;;;;;;5074037;28;20491;-72
2022/08/24 00:32:17;;;;;;;4.03;2.17;;;16.70;99.90;;;;;;5073818;28;20045;-73
2022/08/24 00:34:43;;;;;;;1.73;1.55;;;16.60;99.90;;;;;;5077032;28;20047;-73
2022/08/24 00:37:09;;;;;;;2.80;1.65;;;16.60;99.90;;;;;;5094452;28;20091;-73
2022/08/24 00:39:34;;;;;;;7.75;2.45;;;16.60;99.90;;;;;;5084894;28;20088;-73
2022/08/24 00:42:00;;;;;;;1.38;1.08;;;16.50;99.90;;;;;;5086344;28;20388;-73
2022/08/24 00:44:26;;;;;;;2.13;1.80;;;16.50;99.90;;;;;;5077322;28;20036;-73
2022/08/24 00:47:16;;;;;;;8.55;1.25;;;16.50;99.90;;;;;;5074079;28;20037;-73
2022/08/24 00:49:50;;;;;;;5.15;2.28;;;16.50;99.90;;;;;;5073401;28;20094;-73
2022/08/24 00:52:40;;;;;;;2.17;1.73;;;16.50;99.90;;;;;;5086568;28;20040;-73
2022/08/24 00:55:19;;;;;;;4.70;2.33;;;16.40;99.90;;;;;;5073377;28;20044;-73
2022/08/24 00:57:51;;;;;;;1.75;1.50;;;16.40;99.90;;;;;;5074265;28;20040;-73
2022/08/24 01:00:21;;;;;;;1.85;1.35;;;16.30;99.90;;;;;;5074002;28;20063;-73
2022/08/24 01:02:51;;;;;;;2.15;1.52;;;16.30;99.90;;;;;;5075979;28;20048;-73
2022/08/24 01:05:18;;;;;;;1.73;1.15;;;16.10;99.90;;;;;;5094249;28;20075;-73
2022/08/24 01:07:47;;;;;;;0.88;0.82;;;16.20;99.90;;;;;;5093512;28;20052;-73
2022/08/24 01:10:15;;;;;;;1.23;1.10;;;16.10;99.90;;;;;;5094153;28;20537;-73
2022/08/24 01:12:44;;;;;;;3.50;1.38;;;16.30;99.90;;;;;;5092886;28;20036;-73
2022/08/24 01:15:10;;;;;;;2.53;0.82;;;16.10;99.90;;;;;;5073661;28;20044;-73
2022/08/24 01:20:25;;;;;;;2.85;1.02;;;16.00;99.90;;;;;;5073713;28;20051;-73
2022/08/24 01:23:34;;;;;;;2.90;1.88;;;16.00;99.90;;;;;;5072192;28;20103;-73
2022/08/24 01:26:01;;;;;;;2.40;1.08;;;16.00;99.90;;;;;;5083183;28;20097;-73
2022/08/24 01:28:29;;;;;;;2.40;1.85;;;16.00;99.90;;;;;;5093600;28;20044;-74
2022/08/24 01:30:55;;;;;;;1.48;1.38;;;16.00;99.90;;;;;;5092811;28;20044;-73
2022/08/24 01:33:28;;;;;;;2.47;1.10;;;16.00;99.90;;;;;;5093031;28;20039;-72
2022/08/24 01:36:00;;;;;;;2.85;1.48;;;15.90;99.90;;;;;;5093820;28;20064;-73
2022/08/24 01:38:27;;;;;;;1.90;1.33;;;15.90;99.90;;;;;;5079262;28;20169;-73
2022/08/24 01:40:59;;;;;;;1.20;0.57;;;15.80;99.90;;;;;;5055399;28;20045;-72
2022/08/24 01:43:25;;;;;;;2.20;2.00;;;15.80;99.90;;;;;;5072979;28;20047;-74
2022/08/24 01:45:51;;;;;;;1.95;1.60;;;15.90;99.90;;;;;;5072486;28;20041;-74
2022/08/24 01:48:16;;;;;;;7.78;2.45;;;15.90;99.90;;;;;;5072395;28;20047;-74
2022/08/24 01:50:42;;;;;;;1.23;1.02;;;15.80;99.90;;;;;;5083629;28;20409;-74
2022/08/24 01:53:08;;;;;;;2.42;1.90;;;15.80;99.90;;;;;;5072552;28;20033;-73
2022/08/24 01:58:07;;;;;;;2.25;1.33;;;15.80;99.90;;;;;;5025029;28;20046;-74
2022/08/24 02:00:34;;;;;;;1.25;1.15;;;15.80;99.90;;;;;;4989445;28;20050;-75
2022/08/24 02:03:01;;;;;;;2.05;1.83;;;15.90;99.90;;;;;;5011335;28;20049;-72
2022/08/24 02:05:27;;;;;;;1.92;1.63;;;15.80;99.90;;;;;;5036774;28;20054;-73
2022/08/24 02:07:53;;;;;;;2.20;1.58;;;15.80;99.90;;;;;;5025684;28;20074;-74
2022/08/24 02:10:19;;;;;;;2.85;1.75;;;15.80;99.90;;;;;;5036839;28;20045;-73
2022/08/24 02:12:56;;;;;;;1.52;1.42;;;15.80;99.90;;;;;;5045089;28;20503;-75
2022/08/24 02:15:33;;;;;;;1.23;1.13;;;15.80;99.90;;;;;;5045405;28;20065;-74
2022/08/24 02:17:59;;;;;;;1.67;1.58;;;15.70;99.90;;;;;;5042817;28;20045;-75
2022/08/24 02:20:25;;;;;;;1.80;1.50;;;15.70;99.90;;;;;;5043551;28;20041;-75
2022/08/24 02:22:52;;;;;;;1.73;1.52;;;15.60;99.90;;;;;;5023985;28;20042;-74
2022/08/24 02:25:20;;;;;;;1.13;0.85;;;15.60;99.90;;;;;;5044544;28;20068;-73
2022/08/24 02:27:46;;;;;;;2.05;0.75;;;15.60;99.90;;;;;;5043028;28;20056;-75
2022/08/24 02:30:12;;;;;;;0.98;0.88;;;15.60;99.90;;;;;;5040399;28;20041;-73
2022/08/24 02:32:38;;;;;;;1.08;0.52;;;15.60;99.90;;;;;;5039693;28;20040;-74
2022/08/24 02:35:04;;;;;;;1.10;1.00;;;15.50;99.90;;;;;;5025884;28;20404;-75
2022/08/24 02:37:29;;;;;;;0.50;0.45;;;15.50;99.90;;;;;;5025021;28;20041;-74
2022/08/24 02:39:55;;;;;;;0.82;0.43;;;15.40;99.90;;;;;;5043573;28;20037;-74
2022/08/24 02:42:20;;;;;;;2.75;0.40;;;15.40;99.90;;;;;;5042585;28;20072;-74
2022/08/24 02:44:46;;;;;;;0.35;0.35;;;15.40;99.90;;;;;;5042314;28;20559;-73
2022/08/24 02:47:12;;;;;;;1.60;1.20;;;16.00;99.90;;;;;;5043701;28;20037;-74
2022/08/24 02:49:38;;;;;;;0.60;0.35;;;15.40;99.90;;;;;;5045331;28;20045;-74
2022/08/24 02:52:06;;;;;;;1.27;1.02;;;15.40;99.90;;;;;;5026689;28;20053;-75
2022/08/24 02:54:32;;;;;;;0.63;0.60;;;15.30;99.90;;;;;;5043615;28;20045;-75
2022/08/24 02:56:57;;;;;;;5.18;1.77;;;15.80;99.90;;;;;;5043277;28;20209;-74
2022/08/24 02:59:23;;;;;;;2.05;1.33;;;15.30;99.90;;;;;;5044061;28;20048;-74
2022/08/24 03:01:49;;;;;;;0.47;0.47;;;15.30;99.90;;;;;;5046220;28;20510;-74
2022/08/24 03:04:15;;;;;;;1.65;1.35;;;15.20;99.90;;;;;;5046187;28;20550;-74
2022/08/24 03:06:42;;;;;;;2.17;1.02;;;15.20;99.90;;;;;;5026168;28;20401;-74
2022/08/24 03:09:08;;;;;;;0.75;0.75;;;15.20;99.90;;;;;;5025886;28;20046;-74
2022/08/24 03:11:34;;;;;;;0.52;0.50;;;15.30;99.90;;;;;;5033672;28;20087;-74
2022/08/24 03:14:00;;;;;;;1.55;0.93;;;15.20;99.90;;;;;;5046482;28;20048;-75
2022/08/24 03:16:27;;;;;;;1.25;1.15;;;15.20;99.90;;;;;;5053213;28;20025;-74
2022/08/24 03:18:53;;;;;;;1.00;0.68;;;15.30;99.90;;;;;;5057109;28;20077;-74
2022/08/24 03:21:18;;;;;;;0.50;0.50;;;15.10;99.90;;;;;;5056191;28;20034;-73
2022/08/24 03:23:44;;;;;;;1.48;1.05;;;15.20;99.90;;;;;;5056399;28;20064;-73
2022/08/24 03:26:11;;;;;;;0.77;0.77;;;15.20;99.90;;;;;;5056620;28;20052;-75
2022/08/24 03:28:36;;;;;;;1.55;0.60;;;15.20;99.90;;;;;;5039146;28;20061;-74
2022/08/24 03:31:02;;;;;;;1.85;1.35;;;15.10;99.90;;;;;;5058220;28;20033;-74
2022/08/24 03:33:28;;;;;;;1.23;1.10;;;15.00;99.90;;;;;;5058274;28;20051;-77
2022/08/24 03:35:54;;;;;;;0.28;0.28;;;15.10;99.90;;;;;;5057437;28;20087;-75
2022/08/24 03:38:20;;;;;;;0.35;0.35;;;15.10;99.90;;;;;;5043204;28;20076;-75
2022/08/24 03:40:45;;;;;;;1.10;1.00;;;15.30;99.90;;;;;;5042801;28;20049;-74
2022/08/24 03:43:44;;;;;;;1.60;0.45;;;15.00;99.90;;;;;;5041682;28;20109;-75
2022/08/24 03:45:57;;;;;;;4.93;1.73;;;14.90;99.90;;;;;;5043507;28;20113;-75
2022/08/24 03:48:23;;;;;;;0.47;0.40;;;15.00;99.90;;;;;;5041112;28;20041;-74
2022/08/24 03:50:49;;;;;;;1.13;1.02;;;14.90;99.90;;;;;;5024049;28;20077;-73
2022/08/24 03:53:15;;;;;;;3.17;1.48;;;14.90;99.90;;;;;;5022432;28;20076;-74
2022/08/24 03:55:41;;;;;;;0.98;0.35;;;14.90;99.90;;;;;;5022574;28;20492;-74
2022/08/24 03:58:06;;;;;;;3.20;2.20;;;15.00;99.90;;;;;;5022880;28;20045;-75
2022/08/24 04:00:32;;;;;;;0.52;0.30;;;14.90;99.90;;;;;;5041911;28;20056;-73
2022/08/24 04:02:57;;;;;;;0.50;0.43;;;14.90;99.90;;;;;;5040338;28;20037;-74
2022/08/24 04:05:23;;;;;;;0.65;0.65;;;14.90;99.90;;;;;;5039902;28;20131;-74
2022/08/24 04:07:49;;;;;;;0.93;0.88;;;14.90;99.90;;;;;;5021296;28;20033;-73
2022/08/24 04:10:14;;;;;;;0.90;0.73;;;14.80;99.90;;;;;;5040115;28;20049;-75
2022/08/24 04:12:40;;;;;;;0.57;0.45;;;14.80;99.90;;;;;;5041533;28;20049;-75
2022/08/24 04:15:06;;;;;;;0.73;0.43;;;14.80;99.90;;;;;;5040516;28;20451;-75
2022/08/24 04:17:32;;;;;;;1.02;0.73;;;14.80;99.90;;;;;;5039552;28;20396;-74
2022/08/24 04:19:57;;;;;;;0.90;0.70;;;14.80;99.90;;;;;;5021690;28;20041;-75
2022/08/24 04:22:25;;;;;;;1.90;0.93;;;14.80;99.90;;;;;;5039989;28;20096;-74
2022/08/24 04:24:54;;;;;;;0.57;0.57;;;14.80;99.90;;;;;;5029670;28;20056;-75
2022/08/24 04:27:19;;;;;;;1.52;0.88;;;15.00;99.90;;;;;;5003703;28;20057;-75
2022/08/24 04:29:45;;;;;;;1.02;0.63;;;14.80;99.90;;;;;;5037217;28;20496;-74
2022/08/24 04:32:11;;;;;;;1.42;1.23;;;14.80;99.90;;;;;;5011831;28;20044;-73
2022/08/24 04:34:37;;;;;;;6.50;1.73;;;14.80;99.90;;;;;;5012203;28;20132;-74
2022/08/24 04:37:02;;;;;;;1.92;1.00;;;14.80;99.90;;;;;;5027579;28;20041;-74
2022/08/24 04:39:28;;;;;;;2.72;1.00;;;14.80;99.90;;;;;;5030638;28;20095;-74
2022/08/24 04:41:56;;;;;;;2.45;0.65;;;14.80;99.90;;;;;;5033364;28;20924;-75
2022/08/24 04:44:21;;;;;;;1.55;1.00;;;14.70;99.90;;;;;;5033504;28;20042;-75
2022/08/24 04:46:47;;;;;;;2.08;1.02;;;14.80;99.90;;;;;;5029455;28;20369;-74
2022/08/24 04:49:13;;;;;;;1.35;1.05;;;14.80;99.90;;;;;;5040934;28;20105;-75
2022/08/24 04:51:38;;;;;;;1.35;0.70;;;14.80;99.90;;;;;;5038611;28;20041;-75
2022/08/24 04:54:06;;;;;;;1.52;0.88;;;14.90;99.90;;;;;;5037829;28;20042;-74
2022/08/24 04:56:31;;;;;;;1.23;1.10;;;14.90;99.90;;;;;;5032025;28;20529;-74
2022/08/24 04:58:57;;;;;;;0.28;0.28;;;14.90;99.90;;;;;;5028789;28;20116;-75
2022/08/24 05:01:25;;;;;;;1.85;0.77;;;15.00;99.90;;;;;;5026652;28;20081;-74
2022/08/24 05:03:53;;;;;;;0.90;0.82;;;15.10;99.90;;;;;;5020584;28;20507;-74
2022/08/24 05:06:26;;;;;;;1.92;0.98;;;15.10;99.90;;;;;;5018651;28;20080;-74
2022/08/24 05:08:53;;;;;;;2.33;0.40;;;15.20;99.90;;;;;;5033307;28;20045;-74
2022/08/24 05:11:21;;;;;;;1.17;0.98;;;15.20;99.90;;;;;;5048590;28;20057;-75
2022/08/24 05:13:47;;;;;;;1.73;0.98;;;15.30;99.90;;;;;;5051923;28;20053;-75
2022/08/24 05:16:17;;;;;;;1.13;1.02;;;15.30;99.90;;;;;;5035468;28;20093;-76
2022/08/24 05:18:47;;;;;;;0.95;0.85;;;15.40;99.90;;;;;;5051609;28;20042;-75
2022/08/24 05:21:21;;;;;;;0.30;0.30;;;15.60;99.90;;;;;;5047051;28;20041;-75
2022/08/24 05:23:47;;;;;;;3.85;2.72;;;15.50;99.90;;;;;;5001858;28;20088;-75
2022/08/24 05:26:16;;;;;;;3.35;1.67;;;15.50;99.90;;;;;;5037417;28;20041;-74
2022/08/24 05:28:42;;;;;;;1.08;0.93;;;15.60;99.90;;;;;;5036149;28;20045;-74
2022/08/24 05:31:14;;;;;;;2.35;1.85;;;15.70;99.90;;;;;;5018099;28;20051;-75
2022/08/24 05:33:40;;;;;;;2.60;1.65;;;15.70;99.90;;;;;;5036456;28;20037;-75
2022/08/24 05:36:21;;;;;;;1.48;1.35;;;15.80;99.90;;;;;;5038771;28;20044;-74
2022/08/24 05:38:48;;;;;;;3.78;1.30;;;15.90;99.90;;;;;;5037593;28;20041;-74
2022/08/24 05:41:15;;;;;;;4.10;1.27;;;16.00;99.90;;;;;;5023977;28;20045;-73
2022/08/24 05:43:40;;;;;;;2.25;1.40;;;16.10;99.90;;;;;;5022044;28;20049;-74
2022/08/24 05:46:06;;;;;;;1.00;0.90;;;16.10;99.90;;;;;;5041567;28;20052;-74
2022/08/24 05:48:34;;;;;;;0.80;0.70;;;16.20;99.90;;;;;;5024097;28;20106;-74
2022/08/24 05:51:00;;;;;;;0.50;0.40;;;16.30;99.90;;;;;;5024320;28;20073;-74
2022/08/24 05:53:26;;;;;;;1.02;0.98;;;16.40;99.90;;;;;;5043733;28;20086;-73
2022/08/24 05:55:52;;;;;;;1.92;1.10;;;16.50;99.90;;;;;;5044489;28;20171;-74
2022/08/24 05:58:18;;;;;;;0.75;0.55;;;16.70;99.90;;;;;;5043786;28;20037;-75
2022/08/24 06:00:46;;;;;;;1.02;0.17;;;16.80;99.90;;;;;;5044349;28;20053;-74
2022/08/24 06:03:13;;;;;;;2.08;0.77;;;16.90;99.90;;;;;;5044569;28;20048;-72
2022/08/24 06:05:43;;;;;;;1.80;0.93;;;17.10;99.90;;;;;;5045455;28;20053;-74
2022/08/24 06:08:10;;;;;;;0.25;0.25;;;17.20;99.90;;;;;;5025814;28;20045;-75
2022/08/24 06:10:44;;;;;;;1.25;0.88;;;17.30;99.90;;;;;;5044850;28;20045;-74
2022/08/24 06:13:10;;;;;;;0.98;0.82;;;17.40;99.90;;;;;;5046474;28;20080;-74
2022/08/24 06:15:37;;;;;;;2.15;1.63;;;17.70;99.90;;;;;;5046047;28;20037;-73
2022/08/24 06:18:04;;;;;;;2.97;1.48;;;18.30;99.90;;;;;;5046290;28;20582;-73
2022/08/24 06:20:30;;;;;;;0.95;0.82;;;19.20;99.90;;;;;;5047344;28;20038;-72
2022/08/24 06:22:56;;;;;;;1.05;0.95;;;20.20;99.90;;;;;;5047399;28;20120;-73
2022/08/24 06:28:06;;;;;;;1.63;1.08;;;21.80;99.90;;;;;;5049918;28;20125;-73
2022/08/24 06:30:32;;;;;;;0.57;0.57;;;22.60;99.90;;;;;;5049641;28;20048;-74
2022/08/24 06:32:59;;;;;;;0.98;0.93;;;22.90;99.90;;;;;;5049091;28;20034;-75
2022/08/24 06:35:25;;;;;;;3.35;1.65;;;23.50;99.90;;;;;;5049310;28;20042;-74
2022/08/24 06:37:53;;;;;;;1.00;0.90;;;24.20;99.90;;;;;;5050180;28;20064;-73
2022/08/24 06:40:19;;;;;;;1.13;0.85;;;24.70;99.90;;;;;;5039326;28;20038;-74
2022/08/24 06:42:45;;;;;;;3.10;0.93;;;25.30;99.90;;;;;;5032679;28;20042;-75
2022/08/24 06:45:11;;;;;;;3.90;2.05;;;25.80;99.90;;;;;;5042713;28;20087;-74
2022/08/24 06:47:37;;;;;;;3.45;2.22;;;26.20;99.90;;;;;;5037445;28;20053;-74
2022/08/24 06:50:05;;;;;;;1.92;1.45;;;26.70;99.90;;;;;;5027066;28;20046;-74
2022/08/24 06:52:31;;;;;;;1.25;1.05;;;27.00;99.90;;;;;;5025238;28;20048;-74
2022/08/24 06:54:57;;;;;;;1.38;1.23;;;27.40;99.90;;;;;;5036880;28;20520;-75
2022/08/24 06:57:22;;;;;;;1.92;1.02;;;27.90;99.90;;;;;;5036664;28;20041;-74
2022/08/24 06:59:48;;;;;;;1.45;1.23;;;28.20;99.90;;;;;;5048105;28;20041;-76
2022/08/24 07:02:14;;;;;;;1.42;1.13;;;28.70;99.90;;;;;;5049281;28;20022;-77
2022/08/24 07:04:41;;;;;;;1.63;1.42;;;28.90;99.90;;;;;;5048796;28;20049;-76
2022/08/24 07:07:07;;;;;;;1.40;1.08;;;29.30;99.90;;;;;;5046509;28;20048;-74
2022/08/24 07:09:33;;;;;;;1.55;0.98;;;29.60;99.90;;;;;;5044269;28;20030;-75
2022/08/24 07:11:59;;;;;;;1.77;0.70;;;30.00;99.90;;;;;;5021476;28;20072;-75
2022/08/24 07:14:24;;;;;;;0.40;0.40;;;30.30;99.90;;;;;;5048073;28;20038;-75
2022/08/24 07:16:50;;;;;;;24.33;1.50;;;30.40;91.30;;;;;;5036770;28;20048;-75
2022/08/24 07:19:16;;;;;;;1.90;1.10;;;30.30;54.10;;;;;;5034151;28;20041;-75
2022/08/24 07:21:41;;;;;;;0.50;0.50;;;30.20;57.20;;;;;;5015929;28;20044;-75
2022/08/24 07:24:07;;;;;;;2.97;1.05;;;29.20;54.50;;;;;;5045933;28;20097;-75
2022/08/24 07:26:33;;;;;;;1.27;0.73;;;29.70;61.60;;;;;;5020293;28;20119;-74
2022/08/24 07:29:05;;;;;;;1.88;1.15;;;29.80;64.30;;;;;;5028585;28;20037;-75
2022/08/24 07:31:37;;;;;;;0.20;0.20;;;29.70;67.40;;;;;;5046259;28;20049;-75
2022/08/24 07:34:07;;;;;;;0.32;0.25;;;30.70;59.20;;;;;;5041427;28;20056;-74
2022/08/24 07:36:33;;;;;;;0.25;0.25;;;31.00;69.50;;;;;;5055013;28;20027;-74
2022/08/24 07:38:59;;;;;;;1.80;0.70;;;31.60;82.10;;;;;;5057628;28;20045;-76
2022/08/24 07:41:26;;;;;;;0.20;0.20;;;31.70;31.70;;;;;;5055942;28;20623;-74
2022/08/24 07:43:53;;;;;;;0.60;0.60;;;31.00;30.30;;;;;;5058084;28;20029;-75
2022/08/24 07:46:19;;;;;;;0.40;0.38;;;31.40;63.10;;;;;;5041228;28;20030;-74
2022/08/24 07:48:44;;;;;;;0.20;0.20;;;32.10;67.80;;;;;;5052722;28;20049;-75
2022/08/24 07:51:13;;;;;;;2.70;0.98;;;30.90;22.00;;;;;;5035346;28;20065;-75
2022/08/24 07:53:40;;;;;;;0.40;0.40;;;30.40;34.90;;;;;;5019202;28;20116;-74
2022/08/24 07:56:06;;;;;;;0.45;0.40;;;30.30;41.30;;;;;;5035910;28;20053;-75
2022/08/24 07:58:32;;;;;;;0.57;0.50;;;30.20;42.80;;;;;;5036248;28;20049;-73
2022/08/24 08:00:58;;;;;;;0.20;0.20;;;30.60;32.10;;;;;;5036761;28;20116;-75
2022/08/24 08:03:26;;;;;;;0.32;0.25;;;31.50;29.70;;;;;;5036209;28;20045;-75
2022/08/24 08:06:12;;;;;;;0.22;0.22;;;32.10;32.80;;;;;;5036790;28;20497;-75
2022/08/24 08:08:40;;;;;;;0.10;0.10;;;32.40;18.40;;;;;;5035194;28;20049;-74
2022/08/24 08:11:07;;;;;;;0.47;0.43;;;32.40;14.50;;;;;;5037049;28;20139;-75
2022/08/24 08:13:33;;;;;;;0.10;0.10;;;32.90;10.50;;;;;;5036754;28;20038;-75
2022/08/24 08:16:00;;;;;;;4.78;1.13;;;33.40;19.90;;;;;;5036060;28;20115;-74
2022/08/24 08:18:27;;;;;;;2.92;1.00;;;32.70;10.30;;;;;;5014927;28;20052;-75
2022/08/24 08:20:53;;;;;;;0.60;0.60;;;32.80;15.30;;;;;;5032935;28;20038;-73
2022/08/24 08:26:13;;;;;;;0.00;0.00;;;32.50;11.00;;;;;;5031848;28;20467;-73
2022/08/24 08:28:38;;;;;;;0.00;0.00;;;32.60;9.70;;;;;;5033005;28;20049;-73
2022/08/24 08:31:04;;;;;;;0.43;0.30;;;33.20;8.80;;;;;;5026654;28;20096;-74
2022/08/24 08:33:30;;;;;;;0.00;0.00;;;33.90;8.10;;;;;;5012437;28;20044;-74
2022/08/24 08:36:02;;;;;;;0.22;0.22;;;34.20;7.40;;;;;;5013467;28;20128;-74
2022/08/24 08:38:28;;;;;;;0.47;0.22;;;34.50;2.90;;;;;;5013123;28;20239;-74
2022/08/24 08:41:05;;;;;;;4.63;0.68;;;34.60;3.10;;;;;;5033416;28;20559;-75
2022/08/24 08:43:40;;;;;;;0.10;0.10;;;34.70;4.60;;;;;;5040082;28;20087;-74
2022/08/24 08:46:05;;;;;;;0.00;0.00;;;34.70;1.00;;;;;;5042340;28;20049;-73
2022/08/24 08:48:49;;;;;;;0.40;0.20;;;34.20;1.00;;;;;;5033967;28;20438;-74
2022/08/24 08:51:37;;;;;;;1.08;0.30;;;34.40;1.00;;;;;;5032966;28;20452;-75
2022/08/24 08:54:30;;;;;;;0.10;0.10;;;33.90;1.00;;;;;;5032366;28;20057;-76
2022/08/24 08:57:05;;;;;;;0.52;0.40;;;34.20;1.00;;;;;;5032134;28;20096;-75
2022/08/24 09:00:07;;;;;;;1.17;0.10;;;34.40;1.00;;;;;;5031824;28;20045;-76
2022/08/24 09:02:58;;;;;;;0.03;0.03;;;34.60;1.00;;;;;;5026966;28;20042;-76
2022/08/24 09:06:05;;;;;;;0.20;0.20;;;34.50;1.00;;;;;;5031826;28;20080;-74
2022/08/24 09:08:36;;;;;;;0.00;0.00;;;34.40;1.00;;;;;;5013421;28;20423;-75
2022/08/24 09:11:32;;;;;;;1.48;0.40;;;34.30;1.00;;;;;;5030378;28;20060;-74
2022/08/24 09:14:06;;;;;;;0.20;0.10;;;34.20;1.00;;;;;;5029659;28;20627;-75
2022/08/24 09:16:43;;;;;;;0.13;0.10;;;34.40;1.00;;;;;;5029567;28;20045;-74
2022/08/24 09:19:24;;;;;;;0.45;0.35;;;34.20;1.00;;;;;;5029728;28;20122;-73
2022/08/24 09:22:11;;;;;;;1.17;0.63;;;34.60;1.00;;;;;;5012544;28;20104;-76
2022/08/24 09:25:12;;;;;;;0.20;0.20;;;34.30;1.00;;;;;;5012212;28;20114;-75
2022/08/24 09:27:52;;;;;;;0.17;0.17;;;34.20;1.00;;;;;;5029698;28;20148;-75
2022/08/24 09:30:23;;;;;;;0.98;0.38;;;33.70;1.00;;;;;;5029546;28;20057;-75
2022/08/24 09:33:03;;;;;;;0.20;0.17;;;33.60;1.00;;;;;;5029552;28;20499;-74
2022/08/24 09:35:52;;;;;;;1.00;0.32;;;32.60;1.00;;;;;;5029799;28;20060;-76
2022/08/24 09:38:48;;;;;;;1.52;0.47;;;32.40;1.00;;;;;;5029498;28;20073;-74
2022/08/24 09:41:48;;;;;;;0.47;0.40;;;32.20;1.00;;;;;;5029579;28;20049;-75
2022/08/24 09:44:31;;;;;;;2.58;0.52;;;31.70;1.00;;;;;;5029610;28;20050;-75
2022/08/24 09:46:57;;;;;;;0.75;0.50;;;30.90;2.80;;;;;;5029711;28;20053;-75
2022/08/24 09:49:49;;;;;;;0.90;0.35;;;31.30;1.40;;;;;;5029450;28;20049;-74
2022/08/24 09:52:23;;;;;;;1.73;0.70;;;31.60;1.80;;;;;;5029423;28;20093;-74
2022/08/24 09:55:07;;;;;;;0.08;0.08;;;31.70;1.70;;;;;;5029761;28;20053;-74
2022/08/24 09:57:54;;;;;;;0.93;0.65;;;31.60;1.00;;;;;;5011193;28;20500;-74
2022/08/24 10:00:29;;;;;;;0.15;0.15;;;31.50;1.00;;;;;;5026091;28;20045;-74
2022/08/24 10:03:35;;;;;;;0.10;0.10;;;31.50;6.40;;;;;;5020196;28;20450;-75
2022/08/24 10:06:26;;;;;;;0.10;0.10;;;30.90;4.70;;;;;;5010061;28;20417;-74
2022/08/24 10:09:13;;;;;;;0.40;0.40;;;31.30;7.90;;;;;;4992054;28;20139;-75
2022/08/24 10:12:01;;;;;;;0.52;0.43;;;31.70;4.40;;;;;;5010054;28;20092;-74
2022/08/24 10:14:39;;;;;;;0.00;0.00;;;31.90;2.50;;;;;;5009878;28;20508;-75
2022/08/24 10:17:31;;;;;;;0.80;0.30;;;32.00;1.00;;;;;;5009569;28;20500;-74
2022/08/24 10:20:02;;;;;;;0.85;0.52;;;32.10;2.80;;;;;;4992149;28;20054;-74
2022/08/24 10:22:40;;;;;;;0.70;0.45;;;32.50;2.70;;;;;;5009935;28;20049;-75
2022/08/24 10:25:44;;;;;;;0.45;0.28;;;32.70;1.00;;;;;;5010791;28;20536;-75
2022/08/24 10:28:53;;;;;;;0.20;0.20;;;32.40;1.00;;;;;;5016639;28;20053;-75
2022/08/24 10:31:44;;;;;;;1.15;0.73;;;32.30;1.00;;;;;;4996297;28;20563;-73
2022/08/24 10:34:19;;;;;;;0.20;0.20;;;32.20;1.00;;;;;;5009526;28;20052;-75
2022/08/24 10:36:47;;;;;;;;;;;32.30;1.00;;;;;;5025064;28;20049;-73
2022/08/24 10:39:45;;;;;;;0.03;0.03;;;32.90;1.00;;;;;;5024415;28;19921;-77
2022/08/24 10:45:53;;;;;;;0.00;0.00;;;31.60;1.00;;;;;;5016755;28;20062;-75
2022/08/24 10:48:31;;;;;;;0.30;0.20;;;31.20;2.60;;;;;;5016344;28;20049;-74
2022/08/24 10:51:17;;;;;;;0.32;0.25;;;31.90;1.00;;;;;;5016540;28;20120;-74
2022/08/24 10:53:48;;;;;;;0.47;0.30;;;31.90;1.00;;;;;;4998268;28;20081;-75
2022/08/24 10:56:17;;;;;;;0.38;0.20;;;31.90;1.00;;;;;;5015712;28;20104;-74
2022/08/24 10:58:46;;;;;;;0.10;0.03;;;32.40;1.00;;;;;;5016249;28;20056;-74
2022/08/24 11:01:22;;;;;;;0.17;0.17;;;32.50;1.00;;;;;;5015966;28;20481;-75
2022/08/24 11:03:58;;;;;;;0.13;0.00;;;32.50;1.00;;;;;;5016184;28;20116;-74
2022/08/24 11:06:26;;;;;;;0.63;0.35;;;32.60;1.00;;;;;;4999085;28;20041;-75
2022/08/24 11:09:06;;;;;;;0.22;0.10;;;33.00;1.00;;;;;;5016064;28;20139;-74
2022/08/24 11:11:38;;;;;;;0.00;0.00;;;32.70;1.00;;;;;;5016701;28;20049;-74
2022/08/24 11:14:22;;;;;;;0.00;0.00;;;33.10;1.00;;;;;;5017397;28;20046;-74
2022/08/24 11:16:48;;;;;;;0.10;0.10;;;33.20;1.00;;;;;;4982877;28;20046;-75
2022/08/24 11:19:31;;;;;;;0.38;0.38;;;33.50;1.00;;;;;;4999367;28;20048;-74
2022/08/24 11:22:00;;;;;;;0.10;0.10;;;34.00;1.00;;;;;;4999940;28;20046;-73
2022/08/24 11:24:42;;;;;;;0.55;0.50;;;34.40;1.00;;;;;;4998917;28;20042;-75
2022/08/24 11:27:16;;;;;;;0.00;0.00;;;34.50;1.00;;;;;;5016431;28;20045;-74
2022/08/24 11:30:24;;;;;;;0.20;0.10;;;33.30;1.00;;;;;;5016433;28;20093;-74
2022/08/24 11:32:57;;;;;;;0.00;0.00;;;32.80;1.00;;;;;;5015380;28;20049;-75
2022/08/24 11:35:32;;;;;;;0.35;0.20;;;32.40;1.00;;;;;;5016536;28;20081;-75
2022/08/24 11:38:22;;;;;;;0.13;0.13;;;32.40;1.00;;;;;;4997828;28;20046;-74
2022/08/24 11:40:54;;;;;;;0.17;0.13;;;32.40;1.00;;;;;;5015849;28;20038;-74
2022/08/24 11:44:00;;;;;;;0.47;0.30;;;32.60;1.00;;;;;;4998390;28;20053;-74
2022/08/24 11:47:12;;;;;;;0.17;0.17;;;33.90;1.00;;;;;;4993578;28;20120;-74
2022/08/24 11:50:19;;;;;;;0.03;0.03;;;35.10;1.00;;;;;;4904234;29;20043;-74
2022/08/24 11:53:09;;;;;;;6.80;0.38;;;36.10;1.00;;;;;;4936305;29;20106;-74
2022/08/24 11:55:38;;;;;;;0.00;0.00;;;37.20;1.00;;;;;;5008594;28;20057;-74
2022/08/24 11:58:28;;;;;;;0.08;0.08;;;37.80;1.00;;;;;;5015350;28;20452;-73
2022/08/24 12:01:16;;;;;;;0.10;0.10;;;38.10;1.00;;;;;;5015309;28;20104;-74
2022/08/24 12:03:53;;;;;;;0.15;0.13;;;37.40;1.00;;;;;;5015374;28;20500;-75
2022/08/24 12:06:21;;;;;;;0.00;0.00;;;37.70;1.00;;;;;;5015385;28;20046;-74
2022/08/24 12:08:50;;;;;;;0.00;0.00;;;38.00;1.00;;;;;;5015308;28;20129;-74
2022/08/24 12:11:50;;;;;;;0.35;0.15;;;37.60;1.00;;;;;;5015046;28;20077;-74
2022/08/24 12:14:54;;;;;;;0.13;0.13;;;37.50;1.00;;;;;;5015125;28;20041;-74
2022/08/24 12:17:43;;;;;;;0.55;0.32;;;38.10;1.00;;;;;;4997815;28;20100;-73
2022/08/24 12:20:27;;;;;;;0.00;0.00;;;38.90;1.00;;;;;;5015030;28;20046;-74
2022/08/24 12:22:59;;;;;;;0.00;0.00;;;39.80;1.00;;;;;;5014747;28;20077;-73
2022/08/24 12:28:23;;;;;;;0.00;0.00;;;39.70;1.00;;;;;;5014660;28;20054;-74
2022/08/24 12:30:50;;;;;;;0.10;0.00;;;39.40;1.00;;;;;;5014362;28;20145;-74
2022/08/24 12:33:19;;;;;;;0.52;0.38;;;39.40;1.00;;;;;;4997165;28;20146;-75
2022/08/24 12:35:50;;;;;;;0.03;0.03;;;39.60;1.00;;;;;;4996792;28;20074;-76
2022/08/24 12:38:25;;;;;;;0.00;0.00;;;39.90;1.00;;;;;;5014456;28;20057;-74
2022/08/24 12:40:56;;;;;;;0.22;0.13;;;39.80;1.00;;;;;;5014051;28;20073;-75
2022/08/24 12:43:36;;;;;;;0.00;0.00;;;39.80;1.00;;;;;;5014356;28;20493;-74
2022/08/24 12:46:05;;;;;;;0.03;0.03;;;39.50;1.00;;;;;;5014839;28;20497;-74
2022/08/24 12:48:49;;;;;;;0.00;0.00;;;39.60;1.00;;;;;;5015218;28;20381;-75
2022/08/24 12:51:39;;;;;;;0.00;0.00;;;39.80;1.00;;;;;;4998419;28;20049;-75
2022/08/24 12:54:38;;;;;;;0.00;0.00;;;39.40;1.00;;;;;;5015304;28;20049;-74
2022/08/24 12:57:23;;;;;;;1.85;0.52;;;39.20;1.00;;;;;;5014672;28;20054;-73
2022/08/24 13:00:05;;;;;;;0.08;0.08;;;39.70;1.00;;;;;;5015701;28;20125;-74
2022/08/24 13:02:40;;;;;;;0.00;0.00;;;39.30;1.00;;;;;;5015278;28;20073;-74
2022/08/24 13:05:17;;;;;;;0.22;0.05;;;39.60;1.00;;;;;;5016127;28;20046;-76
2022/08/24 13:07:47;;;;;;;0.00;0.00;;;38.50;1.00;;;;;;4997207;28;20122;-76
2022/08/24 13:10:18;;;;;;;0.10;0.10;;;37.90;1.00;;;;;;5014877;28;20050;-74
2022/08/24 13:12:43;;;;;;;0.00;0.00;;;37.60;1.00;;;;;;5013714;28;20111;-76
2022/08/24 13:15:21;;;;;;;0.00;0.00;;;38.30;1.00;;;;;;5015258;28;20050;-76
2022/08/24 13:17:50;;;;;;;0.00;0.00;;;39.40;1.00;;;;;;5015377;28;20042;-74
2022/08/24 13:20:22;;;;;;;0.20;0.17;;;39.00;1.00;;;;;;5013607;28;20127;-73
2022/08/24 13:23:13;;;;;;;0.00;0.00;;;38.60;1.00;;;;;;5013956;28;20046;-75
2022/08/24 13:25:52;;;;;;;0.17;0.13;;;38.10;1.00;;;;;;5014331;28;20045;-73
2022/08/24 13:28:24;;;;;;;0.10;0.10;;;37.00;1.00;;;;;;5014388;28;20076;-74
2022/08/24 13:30:52;;;;;;;0.10;0.10;;;36.10;1.00;;;;;;5015320;28;20054;-75
2022/08/24 13:33:37;;;;;;;0.28;0.10;;;36.40;1.00;;;;;;5015553;28;20508;-74